sensor_id;sensor_type;location;lat;lon;timestamp;pressure;altitude;pressure_sealevel;temperature;humidity
11648;BME280;5880;52.342;9.662;2023-04-22T00:01:37;100464.88;;;18.49;33.86
11648;BME280;5880;52.342;9.662;2023-04-22T00:04:02;100458.81;;;18.47;33.95
11648;BME280;5880;52.342;9.662;2023-04-22T00:06:28;100463.81;;;18.45;33.95
11648;BME280;5880;52.342;9.662;2023-04-22T00:08:54;100450.56;;;18.42;33.98
11648;BME280;5880;52.342;9.662;2023-04-22T00:11:19;100450.84;;;18.40;34.04
11648;BME280;5880;52.342;9.662;2023-04-22T00:13:45;100452.25;;;18.38;34.09
11648;BME280;5880;52.342;9.662;2023-04-22T00:16:11;100450.59;;;18.37;33.99
11648;BME280;5880;52.342;9.662;2023-04-22T00:18:36;100431.03;;;18.28;33.96
11648;BME280;5880;52.342;9.662;2023-04-22T00:21:04;100434.59;;;18.33;34.08
11648;BME280;5880;52.342;9.662;2023-04-22T00:23:30;100434.59;;;18.28;34.32
11648;BME280;5880;52.342;9.662;2023-04-22T00:25:56;100435.25;;;18.20;34.25
11648;BME280;5880;52.342;9.662;2023-04-22T00:28:22;100434.66;;;18.23;34.21
11648;BME280;5880;52.342;9.662;2023-04-22T00:30:47;100437.72;;;18.22;34.13
11648;BME280;5880;52.342;9.662;2023-04-22T00:33:13;100443.78;;;18.24;34.20
11648;BME280;5880;52.342;9.662;2023-04-22T00:35:38;100432.47;;;18.20;34.24
11648;BME280;5880;52.342;9.662;2023-04-22T00:38:04;100430.84;;;18.19;34.29
11648;BME280;5880;52.342;9.662;2023-04-22T00:40:30;100431.38;;;18.16;34.28
11648;BME280;5880;52.342;9.662;2023-04-22T00:42:56;100435.28;;;18.15;34.41
11648;BME280;5880;52.342;9.662;2023-04-22T00:45:25;100430.63;;;18.10;34.33
11648;BME280;5880;52.342;9.662;2023-04-22T00:47:51;100433.13;;;18.07;34.23
11648;BME280;5880;52.342;9.662;2023-04-22T00:50:17;100435.34;;;18.05;34.20
11648;BME280;5880;52.342;9.662;2023-04-22T00:52:43;100432.00;;;18.08;34.37
11648;BME280;5880;52.342;9.662;2023-04-22T00:55:10;100432.84;;;18.08;34.31
11648;BME280;5880;52.342;9.662;2023-04-22T00:57:37;100430.34;;;18.07;34.38
11648;BME280;5880;52.342;9.662;2023-04-22T01:00:05;100425.13;;;18.05;34.37
11648;BME280;5880;52.342;9.662;2023-04-22T01:02:31;100427.88;;;18.05;34.32
11648;BME280;5880;52.342;9.662;2023-04-22T01:04:58;100421.81;;;18.03;34.22
11648;BME280;5880;52.342;9.662;2023-04-22T01:07:24;100424.31;;;18.00;34.28
11648;BME280;5880;52.342;9.662;2023-04-22T01:09:50;100418.53;;;17.96;34.32
11648;BME280;5880;52.342;9.662;2023-04-22T01:12:15;100426.28;;;17.94;34.46
11648;BME280;5880;52.342;9.662;2023-04-22T01:14:41;100423.56;;;17.89;34.41
11648;BME280;5880;52.342;9.662;2023-04-22T01:17:08;100433.78;;;17.88;34.64
11648;BME280;5880;52.342;9.662;2023-04-22T01:19:35;100428.84;;;17.85;34.58
11648;BME280;5880;52.342;9.662;2023-04-22T01:22:02;100431.34;;;17.82;34.61
11648;BME280;5880;52.342;9.662;2023-04-22T01:24:30;100425.25;;;17.80;34.75
11648;BME280;5880;52.342;9.662;2023-04-22T01:26:57;100420.84;;;17.73;34.52
11648;BME280;5880;52.342;9.662;2023-04-22T01:29:23;100431.91;;;17.73;34.74
11648;BME280;5880;52.342;9.662;2023-04-22T01:31:49;100428.06;;;17.69;34.77
11648;BME280;5880;52.342;9.662;2023-04-22T01:34:15;100422.00;;;17.62;34.67
11648;BME280;5880;52.342;9.662;2023-04-22T01:36:41;100424.78;;;17.62;34.75
11648;BME280;5880;52.342;9.662;2023-04-22T01:39:06;100423.69;;;17.58;34.75
11648;BME280;5880;52.342;9.662;2023-04-22T01:41:32;100423.44;;;17.55;34.94
11648;BME280;5880;52.342;9.662;2023-04-22T01:43:59;100426.78;;;17.51;35.07
11648;BME280;5880;52.342;9.662;2023-04-22T01:46:27;100409.38;;;17.46;35.12
11648;BME280;5880;52.342;9.662;2023-04-22T01:48:53;100420.72;;;17.44;34.99
11648;BME280;5880;52.342;9.662;2023-04-22T01:51:19;100418.25;;;17.43;35.18
11648;BME280;5880;52.342;9.662;2023-04-22T01:53:49;100413.28;;;17.40;35.30
11648;BME280;5880;52.342;9.662;2023-04-22T01:56:15;100413.03;;;17.36;35.25
11648;BME280;5880;52.342;9.662;2023-04-22T01:58:42;100410.84;;;17.33;35.37
11648;BME280;5880;52.342;9.662;2023-04-22T02:01:09;100403.38;;;17.28;35.33
11648;BME280;5880;52.342;9.662;2023-04-22T02:03:35;100405.59;;;17.26;35.56
11648;BME280;5880;52.342;9.662;2023-04-22T02:06:01;100412.78;;;17.22;35.45
11648;BME280;5880;52.342;9.662;2023-04-22T02:08:27;100413.09;;;17.21;35.51
11648;BME280;5880;52.342;9.662;2023-04-22T02:10:53;100409.25;;;17.17;35.63
11648;BME280;5880;52.342;9.662;2023-04-22T02:13:18;100408.97;;;17.13;35.68
11648;BME280;5880;52.342;9.662;2023-04-22T02:15:44;100404.81;;;17.11;35.54
11648;BME280;5880;52.342;9.662;2023-04-22T02:18:10;100408.13;;;17.13;35.71
11648;BME280;5880;52.342;9.662;2023-04-22T02:20:36;100394.63;;;17.06;35.70
11648;BME280;5880;52.342;9.662;2023-04-22T02:23:02;100388.56;;;17.04;35.92
11648;BME280;5880;52.342;9.662;2023-04-22T02:25:29;100397.13;;;17.02;35.95
11648;BME280;5880;52.342;9.662;2023-04-22T02:27:55;100383.91;;;16.94;36.04
11648;BME280;5880;52.342;9.662;2023-04-22T02:30:21;100396.31;;;16.97;35.94
11648;BME280;5880;52.342;9.662;2023-04-22T02:32:46;100398.81;;;16.93;36.13
11648;BME280;5880;52.342;9.662;2023-04-22T02:35:12;100397.72;;;16.89;36.23
11648;BME280;5880;52.342;9.662;2023-04-22T02:37:38;100402.41;;;16.88;36.10
11648;BME280;5880;52.342;9.662;2023-04-22T02:40:04;100386.94;;;16.87;36.30
11648;BME280;5880;52.342;9.662;2023-04-22T02:42:32;100386.69;;;16.84;36.36
11648;BME280;5880;52.342;9.662;2023-04-22T02:44:57;100387.53;;;16.79;36.33
11648;BME280;5880;52.342;9.662;2023-04-22T02:47:24;100386.41;;;16.75;36.70
11648;BME280;5880;52.342;9.662;2023-04-22T02:49:49;100377.88;;;16.72;36.62
11648;BME280;5880;52.342;9.662;2023-04-22T02:52:15;100378.13;;;16.70;36.61
11648;BME280;5880;52.342;9.662;2023-04-22T02:54:41;100372.88;;;16.68;36.41
11648;BME280;5880;52.342;9.662;2023-04-22T02:57:06;100382.53;;;16.71;36.62
11648;BME280;5880;52.342;9.662;2023-04-22T02:59:34;100375.38;;;16.70;36.72
11648;BME280;5880;52.342;9.662;2023-04-22T03:02:00;100381.72;;;16.71;36.67
11648;BME280;5880;52.342;9.662;2023-04-22T03:04:25;100380.91;;;16.70;36.81
11648;BME280;5880;52.342;9.662;2023-04-22T03:06:51;100375.09;;;16.66;36.92
11648;BME280;5880;52.342;9.662;2023-04-22T03:09:17;100369.03;;;16.64;36.87
11648;BME280;5880;52.342;9.662;2023-04-22T03:11:43;100385.59;;;16.64;36.75
11648;BME280;5880;52.342;9.662;2023-04-22T03:14:09;100382.81;;;16.64;36.93
11648;BME280;5880;52.342;9.662;2023-04-22T03:16:35;100383.38;;;16.61;36.88
11648;BME280;5880;52.342;9.662;2023-04-22T03:19:01;100371.78;;;16.59;37.03
11648;BME280;5880;52.342;9.662;2023-04-22T03:21:27;100375.94;;;16.57;37.06
11648;BME280;5880;52.342;9.662;2023-04-22T03:23:53;100377.63;;;16.58;36.94
11648;BME280;5880;52.342;9.662;2023-04-22T03:26:19;100372.09;;;16.58;36.98
11648;BME280;5880;52.342;9.662;2023-04-22T03:28:45;100367.41;;;16.58;36.96
11648;BME280;5880;52.342;9.662;2023-04-22T03:31:10;100361.91;;;16.53;36.91
11648;BME280;5880;52.342;9.662;2023-04-22T03:33:36;100367.97;;;16.55;36.92
11648;BME280;5880;52.342;9.662;2023-04-22T03:36:02;100359.69;;;16.50;36.85
11648;BME280;5880;52.342;9.662;2023-04-22T03:38:28;100376.78;;;16.52;36.89
11648;BME280;5880;52.342;9.662;2023-04-22T03:40:54;100374.59;;;16.49;37.06
11648;BME280;5880;52.342;9.662;2023-04-22T03:43:19;100367.13;;;16.44;37.08
11648;BME280;5880;52.342;9.662;2023-04-22T03:45:45;100378.19;;;16.44;36.97
11648;BME280;5880;52.342;9.662;2023-04-22T03:48:11;100371.00;;;16.43;37.04
11648;BME280;5880;52.342;9.662;2023-04-22T03:50:37;100374.88;;;16.42;37.05
11648;BME280;5880;52.342;9.662;2023-04-22T03:53:02;100375.13;;;16.41;37.17
11648;BME280;5880;52.342;9.662;2023-04-22T03:55:28;100380.94;;;16.39;37.07
11648;BME280;5880;52.342;9.662;2023-04-22T03:57:54;100369.91;;;16.34;37.11
11648;BME280;5880;52.342;9.662;2023-04-22T04:00:20;100372.94;;;16.33;37.23
11648;BME280;5880;52.342;9.662;2023-04-22T04:02:45;100367.13;;;16.29;37.19
11648;BME280;5880;52.342;9.662;2023-04-22T04:05:11;100372.09;;;16.27;37.28
11648;BME280;5880;52.342;9.662;2023-04-22T04:07:37;100364.13;;;16.20;37.26
11648;BME280;5880;52.342;9.662;2023-04-22T04:10:03;100363.56;;;16.18;37.12
11648;BME280;5880;52.342;9.662;2023-04-22T04:12:29;100352.53;;;16.08;37.47
11648;BME280;5880;52.342;9.662;2023-04-22T04:14:54;100370.75;;;16.09;37.52
11648;BME280;5880;52.342;9.662;2023-04-22T04:17:20;100358.88;;;16.03;37.62
11648;BME280;5880;52.342;9.662;2023-04-22T04:19:53;100365.22;;;15.99;37.85
11648;BME280;5880;52.342;9.662;2023-04-22T04:22:19;100363.56;;;15.93;37.97
11648;BME280;5880;52.342;9.662;2023-04-22T04:24:45;100360.25;;;15.86;37.97
11648;BME280;5880;52.342;9.662;2023-04-22T04:27:12;100356.38;;;15.87;38.08
11648;BME280;5880;52.342;9.662;2023-04-22T04:29:38;100368.22;;;15.87;38.13
11648;BME280;5880;52.342;9.662;2023-04-22T04:32:07;100365.75;;;15.86;38.40
11648;BME280;5880;52.342;9.662;2023-04-22T04:34:33;100361.06;;;15.86;38.26
11648;BME280;5880;52.342;9.662;2023-04-22T04:36:59;100366.31;;;15.88;38.36
11648;BME280;5880;52.342;9.662;2023-04-22T04:39:25;100365.47;;;15.87;38.23
11648;BME280;5880;52.342;9.662;2023-04-22T04:41:54;100365.75;;;15.91;38.27
11648;BME280;5880;52.342;9.662;2023-04-22T04:44:20;100357.75;;;15.89;38.61
11648;BME280;5880;52.342;9.662;2023-04-22T04:46:47;100361.06;;;15.96;38.53
11648;BME280;5880;52.342;9.662;2023-04-22T04:49:13;100354.75;;;16.01;38.61
11648;BME280;5880;52.342;9.662;2023-04-22T04:51:38;100356.41;;;16.02;38.39
11648;BME280;5880;52.342;9.662;2023-04-22T04:54:04;100337.94;;;16.02;38.39
11648;BME280;5880;52.342;9.662;2023-04-22T04:56:30;100340.41;;;16.09;38.87
11648;BME280;5880;52.342;9.662;2023-04-22T04:58:56;100349.78;;;16.08;38.67
11648;BME280;5880;52.342;9.662;2023-04-22T05:01:22;100357.78;;;16.15;38.57
11648;BME280;5880;52.342;9.662;2023-04-22T05:03:47;100351.44;;;16.19;38.76
11648;BME280;5880;52.342;9.662;2023-04-22T05:06:13;100356.41;;;16.28;38.81
11648;BME280;5880;52.342;9.662;2023-04-22T05:08:39;100361.34;;;16.36;39.06
11648;BME280;5880;52.342;9.662;2023-04-22T05:11:04;100362.72;;;16.43;39.10
11648;BME280;5880;52.342;9.662;2023-04-22T05:13:30;100366.03;;;16.51;39.08
11648;BME280;5880;52.342;9.662;2023-04-22T05:15:56;100363.53;;;16.59;39.24
11648;BME280;5880;52.342;9.662;2023-04-22T05:18:22;100356.06;;;16.70;39.09
11648;BME280;5880;52.342;9.662;2023-04-22T05:20:49;100350.53;;;16.80;39.38
11648;BME280;5880;52.342;9.662;2023-04-22T05:23:14;100355.16;;;17.05;39.82
11648;BME280;5880;52.342;9.662;2023-04-22T05:25:40;100355.59;;;17.33;40.06
11648;BME280;5880;52.342;9.662;2023-04-22T05:28:06;100351.53;;;17.70;40.65
11648;BME280;5880;52.342;9.662;2023-04-22T05:30:31;100355.69;;;18.07;40.70
11648;BME280;5880;52.342;9.662;2023-04-22T05:32:57;100351.50;;;18.44;40.72
11648;BME280;5880;52.342;9.662;2023-04-22T05:35:23;100354.44;;;18.82;40.64
11648;BME280;5880;52.342;9.662;2023-04-22T05:37:49;100356.69;;;19.04;39.80
11648;BME280;5880;52.342;9.662;2023-04-22T05:40:14;100356.28;;;19.15;39.28
11648;BME280;5880;52.342;9.662;2023-04-22T05:42:40;100363.84;;;19.29;39.01
11648;BME280;5880;52.342;9.662;2023-04-22T05:45:07;100358.47;;;19.37;38.66
11648;BME280;5880;52.342;9.662;2023-04-22T05:47:32;100360.88;;;19.44;38.49
11648;BME280;5880;52.342;9.662;2023-04-22T05:49:58;100360.59;;;19.46;37.97
11648;BME280;5880;52.342;9.662;2023-04-22T05:52:24;100366.97;;;19.46;38.09
11648;BME280;5880;52.342;9.662;2023-04-22T05:54:49;100352.50;;;19.49;38.08
11648;BME280;5880;52.342;9.662;2023-04-22T05:57:15;100355.81;;;19.51;37.91
11648;BME280;5880;52.342;9.662;2023-04-22T05:59:41;100354.16;;;19.50;37.99
11648;BME280;5880;52.342;9.662;2023-04-22T06:02:06;100358.56;;;19.51;37.79
11648;BME280;5880;52.342;9.662;2023-04-22T06:04:32;100349.66;;;19.54;38.03
11648;BME280;5880;52.342;9.662;2023-04-22T06:06:59;100356.41;;;19.67;38.47
11648;BME280;5880;52.342;9.662;2023-04-22T06:09:24;100357.97;;;19.92;38.92
11648;BME280;5880;52.342;9.662;2023-04-22T06:11:50;100359.28;;;20.33;39.03
11648;BME280;5880;52.342;9.662;2023-04-22T06:14:15;100354.75;;;20.83;39.40
11648;BME280;5880;52.342;9.662;2023-04-22T06:16:41;100357.44;;;21.44;39.66
11648;BME280;5880;52.342;9.662;2023-04-22T06:19:07;100348.66;;;22.09;39.30
11648;BME280;5880;52.342;9.662;2023-04-22T06:21:33;100352.66;;;22.71;39.00
11648;BME280;5880;52.342;9.662;2023-04-22T06:24:02;100344.38;;;23.28;38.64
11648;BME280;5880;52.342;9.662;2023-04-22T06:26:29;100346.94;;;23.82;38.03
11648;BME280;5880;52.342;9.662;2023-04-22T06:28:55;100356.88;;;24.44;37.80
11648;BME280;5880;52.342;9.662;2023-04-22T06:31:21;100346.06;;;24.90;37.08
11648;BME280;5880;52.342;9.662;2023-04-22T06:33:46;100354.59;;;25.32;36.39
11648;BME280;5880;52.342;9.662;2023-04-22T06:36:13;100355.66;;;25.69;36.45
11648;BME280;5880;52.342;9.662;2023-04-22T06:38:38;100346.31;;;26.07;35.75
11648;BME280;5880;52.342;9.662;2023-04-22T06:41:04;100343.41;;;26.49;35.41
11648;BME280;5880;52.342;9.662;2023-04-22T06:43:30;100338.63;;;26.95;35.38
11648;BME280;5880;52.342;9.662;2023-04-22T06:45:55;100333.22;;;27.39;35.01
11648;BME280;5880;52.342;9.662;2023-04-22T06:48:21;100334.31;;;27.87;34.45
11648;BME280;5880;52.342;9.662;2023-04-22T06:50:47;100332.97;;;28.25;33.93
11648;BME280;5880;52.342;9.662;2023-04-22T06:53:12;100327.25;;;28.50;33.77
11648;BME280;5880;52.342;9.662;2023-04-22T06:55:38;100330.88;;;28.66;33.00
11648;BME280;5880;52.342;9.662;2023-04-22T06:58:04;100323.09;;;28.75;32.56
11648;BME280;5880;52.342;9.662;2023-04-22T07:00:29;100321.63;;;28.81;32.08
11648;BME280;5880;52.342;9.662;2023-04-22T07:02:55;100325.53;;;28.77;31.30
11648;BME280;5880;52.342;9.662;2023-04-22T07:05:21;100323.44;;;28.58;31.00
11648;BME280;5880;52.342;9.662;2023-04-22T07:07:46;100313.50;;;28.32;30.58
11648;BME280;5880;52.342;9.662;2023-04-22T07:10:12;100329.22;;;28.05;30.69
11648;BME280;5880;52.342;9.662;2023-04-22T07:12:39;100318.03;;;27.81;30.81
11648;BME280;5880;52.342;9.662;2023-04-22T07:15:06;100335.66;;;27.65;30.79
11648;BME280;5880;52.342;9.662;2023-04-22T07:17:32;100324.69;;;27.48;31.13
11648;BME280;5880;52.342;9.662;2023-04-22T07:19:58;100315.69;;;27.30;31.07
11648;BME280;5880;52.342;9.662;2023-04-22T07:22:24;100315.00;;;27.08;31.22
11648;BME280;5880;52.342;9.662;2023-04-22T07:24:49;100313.72;;;26.81;30.93
11648;BME280;5880;52.342;9.662;2023-04-22T07:27:16;100312.88;;;26.68;31.28
11648;BME280;5880;52.342;9.662;2023-04-22T07:29:42;100319.66;;;26.67;31.73
11648;BME280;5880;52.342;9.662;2023-04-22T07:32:08;100315.25;;;26.79;32.08
11648;BME280;5880;52.342;9.662;2023-04-22T07:34:34;100312.53;;;26.94;32.27
11648;BME280;5880;52.342;9.662;2023-04-22T07:36:59;100313.00;;;27.09;31.93
11648;BME280;5880;52.342;9.662;2023-04-22T07:39:25;100309.19;;;27.26;31.83
11648;BME280;5880;52.342;9.662;2023-04-22T07:41:51;100317.31;;;27.43;32.01
11648;BME280;5880;52.342;9.662;2023-04-22T07:44:17;100311.44;;;27.61;31.82
11648;BME280;5880;52.342;9.662;2023-04-22T07:46:46;100317.81;;;27.73;31.42
11648;BME280;5880;52.342;9.662;2023-04-22T07:49:13;100307.41;;;27.86;31.71
11648;BME280;5880;52.342;9.662;2023-04-22T07:51:39;100317.81;;;28.14;31.46
11648;BME280;5880;52.342;9.662;2023-04-22T07:54:05;100321.34;;;28.55;31.54
11648;BME280;5880;52.342;9.662;2023-04-22T07:56:31;100317.19;;;28.96;31.30
11648;BME280;5880;52.342;9.662;2023-04-22T07:58:57;100317.44;;;29.23;31.08
11648;BME280;5880;52.342;9.662;2023-04-22T08:01:23;100311.31;;;29.37;31.13
11648;BME280;5880;52.342;9.662;2023-04-22T08:03:48;100309.47;;;29.44;30.95
11648;BME280;5880;52.342;9.662;2023-04-22T08:06:14;100312.00;;;29.50;30.20
11648;BME280;5880;52.342;9.662;2023-04-22T08:08:40;100315.56;;;29.46;30.33
11648;BME280;5880;52.342;9.662;2023-04-22T08:11:06;100314.28;;;29.44;29.67
11648;BME280;5880;52.342;9.662;2023-04-22T08:13:32;100312.06;;;29.34;29.56
11648;BME280;5880;52.342;9.662;2023-04-22T08:15:59;100311.81;;;29.23;29.61
11648;BME280;5880;52.342;9.662;2023-04-22T08:18:25;100314.28;;;29.09;29.62
11648;BME280;5880;52.342;9.662;2023-04-22T08:20:50;100309.38;;;28.90;29.42
11648;BME280;5880;52.342;9.662;2023-04-22T08:23:16;100312.38;;;28.65;28.82
11648;BME280;5880;52.342;9.662;2023-04-22T08:25:42;100314.13;;;28.41;29.01
11648;BME280;5880;52.342;9.662;2023-04-22T08:28:07;100307.94;;;28.20;29.15
11648;BME280;5880;52.342;9.662;2023-04-22T08:30:33;100311.44;;;28.01;29.30
11648;BME280;5880;52.342;9.662;2023-04-22T08:32:59;100303.66;;;27.82;29.77
11648;BME280;5880;52.342;9.662;2023-04-22T08:35:24;100307.56;;;27.65;29.57
11648;BME280;5880;52.342;9.662;2023-04-22T08:37:50;100313.09;;;27.49;29.71
11648;BME280;5880;52.342;9.662;2023-04-22T08:40:16;100305.06;;;27.35;30.22
11648;BME280;5880;52.342;9.662;2023-04-22T08:42:43;100319.22;;;27.27;30.56
11648;BME280;5880;52.342;9.662;2023-04-22T08:45:09;100307.44;;;27.21;30.44
11648;BME280;5880;52.342;9.662;2023-04-22T08:47:36;100305.44;;;27.22;30.31
11648;BME280;5880;52.342;9.662;2023-04-22T08:50:04;100299.66;;;27.18;30.59
11648;BME280;5880;52.342;9.662;2023-04-22T08:52:30;100306.72;;;27.12;30.34
11648;BME280;5880;52.342;9.662;2023-04-22T08:54:56;100308.47;;;27.04;30.39
11648;BME280;5880;52.342;9.662;2023-04-22T08:57:23;100299.00;;;26.97;30.34
11648;BME280;5880;52.342;9.662;2023-04-22T08:59:50;100287.78;;;26.97;30.12
11648;BME280;5880;52.342;9.662;2023-04-22T09:02:19;100285.66;;;27.18;30.50
11648;BME280;5880;52.342;9.662;2023-04-22T09:04:48;100288.78;;;27.41;30.50
11648;BME280;5880;52.342;9.662;2023-04-22T09:07:23;100274.38;;;27.55;30.47
11648;BME280;5880;52.342;9.662;2023-04-22T09:09:50;100274.25;;;27.64;30.54
11648;BME280;5880;52.342;9.662;2023-04-22T09:12:15;100276.78;;;27.69;30.09
11648;BME280;5880;52.342;9.662;2023-04-22T09:14:44;100277.50;;;27.66;29.91
11648;BME280;5880;52.342;9.662;2023-04-22T09:17:15;100269.69;;;27.59;30.29
11648;BME280;5880;52.342;9.662;2023-04-22T09:19:42;100266.22;;;27.50;30.00
11648;BME280;5880;52.342;9.662;2023-04-22T09:22:12;100264.81;;;27.44;30.08
11648;BME280;5880;52.342;9.662;2023-04-22T09:24:48;100259.94;;;27.41;30.15
11648;BME280;5880;52.342;9.662;2023-04-22T09:27:16;100260.28;;;27.39;29.96
11648;BME280;5880;52.342;9.662;2023-04-22T09:29:50;100261.91;;;27.40;30.28
11648;BME280;5880;52.342;9.662;2023-04-22T09:32:17;100264.72;;;27.40;30.07
11648;BME280;5880;52.342;9.662;2023-04-22T09:34:52;100255.84;;;27.38;29.97
11648;BME280;5880;52.342;9.662;2023-04-22T09:37:28;100259.38;;;27.35;29.88
11648;BME280;5880;52.342;9.662;2023-04-22T09:39:55;100257.72;;;27.34;30.09
11648;BME280;5880;52.342;9.662;2023-04-22T09:42:21;100247.69;;;27.33;30.07
11648;BME280;5880;52.342;9.662;2023-04-22T09:44:50;100249.31;;;27.34;30.51
11648;BME280;5880;52.342;9.662;2023-04-22T09:47:18;100253.28;;;27.33;30.37
11648;BME280;5880;52.342;9.662;2023-04-22T09:49:53;100239.94;;;27.30;30.55
11648;BME280;5880;52.342;9.662;2023-04-22T09:52:23;100237.28;;;27.33;30.41
11648;BME280;5880;52.342;9.662;2023-04-22T09:54:52;100239.59;;;27.31;30.20
11648;BME280;5880;52.342;9.662;2023-04-22T09:57:20;100234.81;;;27.32;30.05
11648;BME280;5880;52.342;9.662;2023-04-22T09:59:49;100235.66;;;27.32;30.22
11648;BME280;5880;52.342;9.662;2023-04-22T10:02:15;100240.66;;;27.27;30.02
11648;BME280;5880;52.342;9.662;2023-04-22T10:04:41;100235.78;;;27.24;30.21
11648;BME280;5880;52.342;9.662;2023-04-22T10:07:07;100233.69;;;27.21;30.37
11648;BME280;5880;52.342;9.662;2023-04-22T10:09:34;100228.53;;;27.23;30.56
11648;BME280;5880;52.342;9.662;2023-04-22T10:12:00;100229.19;;;27.32;30.35
11648;BME280;5880;52.342;9.662;2023-04-22T10:14:26;100219.03;;;27.40;30.25
11648;BME280;5880;52.342;9.662;2023-04-22T10:16:58;100220.03;;;27.47;30.78
11648;BME280;5880;52.342;9.662;2023-04-22T10:19:26;100216.63;;;27.54;30.52
11648;BME280;5880;52.342;9.662;2023-04-22T10:21:56;100225.81;;;27.67;30.28
11648;BME280;5880;52.342;9.662;2023-04-22T10:24:26;100213.69;;;27.78;30.01
11648;BME280;5880;52.342;9.662;2023-04-22T10:26:57;100215.03;;;27.97;30.05
11648;BME280;5880;52.342;9.662;2023-04-22T10:29:26;100217.41;;;28.11;30.21
11648;BME280;5880;52.342;9.662;2023-04-22T10:31:55;100212.31;;;28.16;30.08
11648;BME280;5880;52.342;9.662;2023-04-22T10:34:30;100202.75;;;28.17;30.01
11648;BME280;5880;52.342;9.662;2023-04-22T10:37:08;100202.28;;;28.15;29.84
11648;BME280;5880;52.342;9.662;2023-04-22T10:39:34;100200.91;;;28.09;29.65
11648;BME280;5880;52.342;9.662;2023-04-22T10:42:03;100202.44;;;28.07;29.81
11648;BME280;5880;52.342;9.662;2023-04-22T10:44:54;100206.34;;;28.02;29.93
11648;BME280;5880;52.342;9.662;2023-04-22T10:47:37;100193.75;;;27.96;29.78
11648;BME280;5880;52.342;9.662;2023-04-22T10:50:32;100194.84;;;27.91;30.03
11648;BME280;5880;52.342;9.662;2023-04-22T10:53:33;100192.72;;;27.88;29.94
11648;BME280;5880;52.342;9.662;2023-04-22T10:55:51;100196.63;;;27.84;29.89
11648;BME280;5880;52.342;9.662;2023-04-22T10:58:21;100191.34;;;27.82;30.02
11648;BME280;5880;52.342;9.662;2023-04-22T11:00:52;100183.19;;;27.77;29.65
11648;BME280;5880;52.342;9.662;2023-04-22T11:03:28;100190.88;;;27.80;29.82
11648;BME280;5880;52.342;9.662;2023-04-22T11:06:18;100180.13;;;27.82;30.03
11648;BME280;5880;52.342;9.662;2023-04-22T11:08:48;100165.63;;;27.80;29.87
11648;BME280;5880;52.342;9.662;2023-04-22T11:11:17;100171.69;;;27.82;29.94
11648;BME280;5880;52.342;9.662;2023-04-22T11:13:43;100164.91;;;27.83;29.64
11648;BME280;5880;52.342;9.662;2023-04-22T11:16:10;100158.47;;;27.83;29.61
11648;BME280;5880;52.342;9.662;2023-04-22T11:18:37;100169.38;;;27.84;29.84
11648;BME280;5880;52.342;9.662;2023-04-22T11:21:04;100170.19;;;27.85;29.54
11648;BME280;5880;52.342;9.662;2023-04-22T11:23:34;100166.56;;;27.84;29.56
11648;BME280;5880;52.342;9.662;2023-04-22T11:26:05;100165.72;;;27.84;29.62
11648;BME280;5880;52.342;9.662;2023-04-22T11:28:31;100156.84;;;27.82;29.60
11648;BME280;5880;52.342;9.662;2023-04-22T11:31:03;100144.78;;;27.81;29.38
11648;BME280;5880;52.342;9.662;2023-04-22T11:33:28;100158.00;;;27.81;29.34
11648;BME280;5880;52.342;9.662;2023-04-22T11:35:54;100153.19;;;27.81;29.40
11648;BME280;5880;52.342;9.662;2023-04-22T11:38:22;100146.06;;;27.84;29.68
11648;BME280;5880;52.342;9.662;2023-04-22T11:40:47;100135.19;;;27.82;29.40
11648;BME280;5880;52.342;9.662;2023-04-22T11:43:13;100141.97;;;27.81;29.33
11648;BME280;5880;52.342;9.662;2023-04-22T11:45:39;100142.34;;;27.79;29.34
11648;BME280;5880;52.342;9.662;2023-04-22T11:48:08;100145.84;;;27.76;29.37
11648;BME280;5880;52.342;9.662;2023-04-22T11:50:37;100138.63;;;27.75;29.35
11648;BME280;5880;52.342;9.662;2023-04-22T11:53:12;100138.53;;;27.72;29.24
11648;BME280;5880;52.342;9.662;2023-04-22T11:55:39;100137.97;;;27.66;29.11
11648;BME280;5880;52.342;9.662;2023-04-22T11:58:15;100143.13;;;27.64;29.35
11648;BME280;5880;52.342;9.662;2023-04-22T12:00:46;100140.59;;;27.59;29.30
11648;BME280;5880;52.342;9.662;2023-04-22T12:05:53;100130.44;;;27.54;29.16
11648;BME280;5880;52.342;9.662;2023-04-22T12:08:25;100127.97;;;27.53;29.41
11648;BME280;5880;52.342;9.662;2023-04-22T12:10:57;100115.94;;;27.52;29.83
11648;BME280;5880;52.342;9.662;2023-04-22T12:13:47;100120.66;;;27.48;29.78
11648;BME280;5880;52.342;9.662;2023-04-22T12:16:18;100124.91;;;27.42;29.83
11648;BME280;5880;52.342;9.662;2023-04-22T12:18:54;100115.22;;;27.40;29.72
11648;BME280;5880;52.342;9.662;2023-04-22T12:21:24;100118.03;;;27.40;29.91
11648;BME280;5880;52.342;9.662;2023-04-22T12:24:08;100102.47;;;27.42;29.99
11648;BME280;5880;52.342;9.662;2023-04-22T12:26:35;100108.41;;;27.41;30.06
11648;BME280;5880;52.342;9.662;2023-04-22T12:29:03;100106.06;;;27.43;29.98
11648;BME280;5880;52.342;9.662;2023-04-22T12:31:28;100098.94;;;27.45;29.88
11648;BME280;5880;52.342;9.662;2023-04-22T12:33:55;100098.56;;;27.47;29.99
11648;BME280;5880;52.342;9.662;2023-04-22T12:36:21;100092.22;;;27.50;30.16
11648;BME280;5880;52.342;9.662;2023-04-22T12:38:48;100093.50;;;27.52;30.59
11648;BME280;5880;52.342;9.662;2023-04-22T12:41:14;100089.97;;;27.55;30.39
11648;BME280;5880;52.342;9.662;2023-04-22T12:43:40;100098.50;;;27.59;30.09
11648;BME280;5880;52.342;9.662;2023-04-22T12:46:08;100091.69;;;27.60;30.44
11648;BME280;5880;52.342;9.662;2023-04-22T12:48:35;100088.19;;;27.63;30.03
11648;BME280;5880;52.342;9.662;2023-04-22T12:51:04;100089.47;;;27.66;29.87
11648;BME280;5880;52.342;9.662;2023-04-22T12:53:31;100087.09;;;27.68;29.84
11648;BME280;5880;52.342;9.662;2023-04-22T12:55:57;100069.19;;;27.72;30.04
11648;BME280;5880;52.342;9.662;2023-04-22T12:58:25;100070.97;;;27.81;29.77
11648;BME280;5880;52.342;9.662;2023-04-22T13:00:51;100082.41;;;27.88;29.95
11648;BME280;5880;52.342;9.662;2023-04-22T13:03:16;100065.28;;;27.93;29.49